LFLL 221130Z 28003KT 220V360 CAVOK 11/02 Q1032 NOSIG

ElémentsDécodage
LFLL Station météo située sur l'aérodrome de LYON Saint-Exupéry
221130Z émis le 22 du mois à 11h30 UTC
28003KT vent du 280°, 03 noeuds
220V360 vent de direction variable entre 220° et 360°
CAVOK Ceiling And Visibility OK
- Visibilité de 10 Km ou plus
- Pas de nuage au-dessous de 1500m ou au-dessous de l'altitude minimale du secteur la plus élevée (si>1500m) et absence de CB
- pas de temps présent significatif
11/02 température 11°C, point de rosée 02°C
 soit une humidité relative de 54%
Q1032 la pression au niveau de la mer (QNH) est de 1032 hPa
NOSIG Pas de changement significatif prévu au cours des deux heures suivant l'heure de l'observation